createdAt,value
2023-05-14T00:00:03.852Z,80.7
2023-05-14T00:01:01.617Z,80.6
2023-05-14T00:02:03.903Z,80.7
2023-05-14T00:03:02.881Z,80.8
2023-05-14T00:04:01.496Z,80.7
2023-05-14T00:05:03.603Z,80.6
2023-05-14T00:06:01.401Z,80.6
2023-05-14T00:07:01.844Z,80.9
2023-05-14T00:08:02.341Z,80.9
2023-05-14T00:09:03.456Z,81
2023-05-14T00:10:02.242Z,81.2
2023-05-14T00:11:01.713Z,81
2023-05-14T00:12:02.165Z,80.6
2023-05-14T00:13:01.701Z,80.2
2023-05-14T00:14:03.801Z,80.3
2023-05-14T00:15:03.303Z,80.8
2023-05-14T00:16:02.172Z,80.9
2023-05-14T00:17:01.528Z,81
2023-05-14T00:18:02.086Z,81
2023-05-14T00:19:01.534Z,80.9
2023-05-14T00:20:01.939Z,81
2023-05-14T00:21:01.397Z,81.2
2023-05-14T00:22:01.858Z,81.1
2023-05-14T00:23:03.092Z,81.3
2023-05-14T00:24:01.843Z,81.2
2023-05-14T00:25:02.339Z,81.4
2023-05-14T00:26:03.361Z,81.3
2023-05-14T00:27:02.272Z,81
2023-05-14T00:28:03.381Z,81
2023-05-14T00:29:03.852Z,81.4
2023-05-14T00:30:01.606Z,81.6
2023-05-14T00:31:02.119Z,81.7
2023-05-14T00:32:01.741Z,81.8
2023-05-14T00:33:02.064Z,81.8
2023-05-14T00:34:01.669Z,81.8
2023-05-14T00:35:02.024Z,81.8
2023-05-14T00:36:01.435Z,81.8
2023-05-14T00:37:01.921Z,81.9
2023-05-14T00:38:01.380Z,81.6
2023-05-14T00:39:01.947Z,81.8
2023-05-14T00:40:01.291Z,81.8
2023-05-14T00:41:01.779Z,81.4
2023-05-14T00:42:03.943Z,81.6
2023-05-14T00:43:03.375Z,81.3
2023-05-14T00:44:02.236Z,81.2
2023-05-14T00:45:01.698Z,81.4
2023-05-14T00:46:02.382Z,81.5
2023-05-14T00:47:01.724Z,81.6
2023-05-14T00:48:02.161Z,81.1
2023-05-14T00:49:01.564Z,81.1
2023-05-14T00:50:03.722Z,81.1
2023-05-14T00:51:01.460Z,81.3
2023-05-14T00:52:01.945Z,81.1
2023-05-14T00:53:01.472Z,81.2
2023-05-14T00:54:01.897Z,81
2023-05-14T00:55:03.146Z,81.6
2023-05-14T00:56:01.869Z,81.2
2023-05-14T00:57:02.296Z,81.4
2023-05-14T00:58:01.821Z,81
2023-05-14T00:59:02.269Z,81.5
2023-05-14T01:00:01.702Z,82.1
2023-05-14T01:01:02.195Z,81.5
2023-05-14T01:02:01.637Z,82.1
2023-05-14T01:03:02.186Z,81.9
2023-05-14T01:04:01.718Z,82.2
2023-05-14T01:05:02.091Z,82.5
2023-05-14T01:06:03.216Z,82.6
2023-05-14T01:07:02.015Z,82.5
2023-05-14T01:08:03.324Z,82.3
2023-05-14T01:09:01.938Z,81.7
2023-05-14T01:10:03.053Z,81.2
2023-05-14T01:11:02.102Z,81.2
2023-05-14T01:12:01.525Z,81.5
2023-05-14T01:13:02.019Z,81.4
2023-05-14T01:14:01.493Z,81.1
2023-05-14T01:15:01.945Z,81.1
2023-05-14T01:16:01.386Z,81
2023-05-14T01:17:03.680Z,81.3
2023-05-14T01:18:01.439Z,81.4
2023-05-14T01:19:01.832Z,81.5
2023-05-14T01:20:02.270Z,81.2
2023-05-14T01:21:01.770Z,81.3
2023-05-14T01:22:02.255Z,81.3
2023-05-14T01:23:01.689Z,81.4
2023-05-14T01:24:02.179Z,81.2
2023-05-14T01:25:01.617Z,81.3
2023-05-14T01:26:02.085Z,81.5
2023-05-14T01:27:03.211Z,81.4
2023-05-14T01:28:01.999Z,81.3
2023-05-14T01:29:01.543Z,81.4
2023-05-14T01:30:02.051Z,81.6
2023-05-14T01:31:01.446Z,81.2
2023-05-14T01:32:01.954Z,80.9
2023-05-14T01:33:01.371Z,81.1
2023-05-14T01:34:01.862Z,81.1
2023-05-14T01:35:02.990Z,81.1
2023-05-14T01:36:01.759Z,81.3
2023-05-14T01:37:02.262Z,81.3
2023-05-14T01:38:03.365Z,81.2
2023-05-14T01:39:02.190Z,81.1
2023-05-14T01:40:01.747Z,81.3
2023-05-14T01:41:03.800Z,81.1
2023-05-14T01:42:01.622Z,81.1
2023-05-14T01:43:03.858Z,81.3
2023-05-14T01:44:03.215Z,81.2
2023-05-14T01:45:03.720Z,81.4
2023-05-14T01:46:01.508Z,81.7
2023-05-14T01:47:03.602Z,82.2
2023-05-14T01:48:01.482Z,82.2
2023-05-14T01:49:01.851Z,81.9
2023-05-14T01:51:03.467Z,81.3
2023-05-14T01:52:03.923Z,80.9
2023-05-14T01:53:01.698Z,81.8
2023-05-14T01:54:02.183Z,81.8
2023-05-14T01:55:03.389Z,82.4
2023-05-14T01:56:02.176Z,82.6
2023-05-14T01:57:03.351Z,82.6
2023-05-14T01:58:03.697Z,81.9
2023-05-14T01:59:01.563Z,81.2
2023-05-14T02:00:02.042Z,81.1
2023-05-14T02:01:01.466Z,81.5
2023-05-14T02:02:03.605Z,81.4
2023-05-14T02:03:01.431Z,81.7
2023-05-14T02:04:03.568Z,81.2
2023-05-14T02:05:03.906Z,81.3
2023-05-14T02:06:01.774Z,80.9
2023-05-14T02:07:02.257Z,81.2
2023-05-14T02:08:01.700Z,80.9
2023-05-14T02:09:02.214Z,80.6
2023-05-14T02:10:01.700Z,81.2
2023-05-14T02:11:02.134Z,81.6
2023-05-14T02:12:03.300Z,81.9
2023-05-14T02:13:02.093Z,82.5
2023-05-14T02:14:01.529Z,82.8
2023-05-14T02:15:03.688Z,82.9
2023-05-14T02:16:01.542Z,83
2023-05-14T02:17:01.460Z,83.1
2023-05-14T02:18:03.632Z,82.4
2023-05-14T02:19:01.392Z,81.7
2023-05-14T02:20:01.860Z,81.8
2023-05-14T02:21:01.372Z,81.4
2023-05-14T02:22:01.796Z,81.5
2023-05-14T02:23:02.260Z,81.6
2023-05-14T02:24:01.785Z,81.9
2023-05-14T02:25:02.293Z,81.9
2023-05-14T02:26:01.724Z,82.5
2023-05-14T02:27:03.863Z,83.1
2023-05-14T02:28:01.617Z,83.1
2023-05-14T02:29:02.115Z,82.1
2023-05-14T02:30:01.547Z,81.6
2023-05-14T02:31:02.074Z,81.4
2023-05-14T02:32:01.456Z,81.4
2023-05-14T02:33:02.018Z,81.5
2023-05-14T02:34:01.464Z,81.6
2023-05-14T02:35:01.931Z,82.5
2023-05-14T02:36:03.065Z,82.9
2023-05-14T02:37:01.840Z,82.7
2023-05-14T02:38:02.330Z,82.9
2023-05-14T02:39:01.774Z,83
2023-05-14T02:40:02.252Z,83.2
2023-05-14T02:41:01.695Z,83.2
2023-05-14T02:42:02.199Z,83.2
2023-05-14T02:43:03.364Z,83.2
2023-05-14T02:44:02.124Z,83.1
2023-05-14T02:45:03.289Z,83.3
2023-05-14T02:46:02.014Z,83.4
2023-05-14T02:47:01.577Z,83.5
2023-05-14T02:48:02.047Z,83.4
2023-05-14T02:49:01.455Z,83
2023-05-14T02:50:01.916Z,83.2
2023-05-14T02:51:01.372Z,83.5
2023-05-14T02:52:01.861Z,83.6
2023-05-14T02:53:01.373Z,83.7
2023-05-14T02:54:01.772Z,83.7
2023-05-14T02:55:02.245Z,83.6
2023-05-14T02:56:01.780Z,83.5
2023-05-14T02:57:03.877Z,83.6
2023-05-14T02:58:01.709Z,83.6
2023-05-14T02:59:02.105Z,83.5
2023-05-14T03:00:01.608Z,83.3
2023-05-14T03:01:02.135Z,83.1
2023-05-14T03:02:01.558Z,83.3
2023-05-14T03:03:02.059Z,83.4
2023-05-14T03:04:01.443Z,83.3
2023-05-14T03:05:03.610Z,83.2
2023-05-14T03:06:01.446Z,83.2
2023-05-14T03:07:01.935Z,83.2
2023-05-14T03:08:01.388Z,82.9
2023-05-14T03:09:01.869Z,82.7
2023-05-14T03:10:01.298Z,82.1
2023-05-14T03:11:01.810Z,81.7
2023-05-14T03:12:02.243Z,81.4
2023-05-14T03:13:01.798Z,81.2
2023-05-14T03:14:02.254Z,81.4
2023-05-14T03:15:03.371Z,81.7
2023-05-14T03:16:03.873Z,81.7
2023-05-14T03:17:01.683Z,81.6
2023-05-14T03:18:02.288Z,81.3
2023-05-14T03:19:01.548Z,81.5
2023-05-14T03:20:03.708Z,81.6
2023-05-14T03:21:01.535Z,81.5
2023-05-14T03:22:02.177Z,81.4
2023-05-14T03:23:01.634Z,81.7
2023-05-14T03:24:02.092Z,81.6
2023-05-14T03:25:03.304Z,81.2
2023-05-14T03:26:02.008Z,81.3
2023-05-14T03:27:01.518Z,81.4
2023-05-14T03:28:02.034Z,81.8
2023-05-14T03:29:01.450Z,81.7
2023-05-14T03:30:01.923Z,81.7
2023-05-14T03:31:01.405Z,81.8
2023-05-14T03:32:01.841Z,81.8
2023-05-14T03:33:02.390Z,81.9
2023-05-14T03:34:01.782Z,82
2023-05-14T03:35:02.287Z,81.9
2023-05-14T03:36:01.717Z,81.9
2023-05-14T03:37:02.178Z,82.2
2023-05-14T03:38:01.728Z,82.2
2023-05-14T03:39:02.171Z,82.1
2023-05-14T03:40:01.610Z,81.4
2023-05-14T03:41:02.120Z,81.6
2023-05-14T03:42:01.523Z,81.9
2023-05-14T03:43:02.034Z,81.7
2023-05-14T03:44:01.524Z,82.3
2023-05-14T03:45:03.625Z,82.7
2023-05-14T03:46:01.468Z,83.2
2023-05-14T03:47:01.870Z,83.4
2023-05-14T03:48:01.472Z,83.5
2023-05-14T03:49:01.968Z,83.6
2023-05-14T03:50:02.319Z,83.7
2023-05-14T03:51:01.767Z,83.7
2023-05-14T03:52:02.282Z,83.7
2023-05-14T03:53:01.689Z,83.7
2023-05-14T03:54:02.182Z,83.8
2023-05-14T03:55:01.605Z,83.8
2023-05-14T03:56:02.090Z,83.7
2023-05-14T03:57:03.231Z,83.7
2023-05-14T03:58:02.014Z,83.6
2023-05-14T03:59:01.534Z,83.6
2023-05-14T04:00:02.017Z,83.7
2023-05-14T04:01:01.440Z,83.8
2023-05-14T04:02:01.929Z,83.7
2023-05-14T04:03:01.444Z,83.7
2023-05-14T04:04:01.968Z,83.8
2023-05-14T04:05:03.047Z,83.6
2023-05-14T04:06:03.449Z,83.6
2023-05-14T04:07:02.255Z,83.5
2023-05-14T04:08:01.781Z,83
2023-05-14T04:09:02.276Z,82.7
2023-05-14T04:10:04.231Z,82.2
2023-05-14T04:11:03.839Z,82.7
2023-05-14T04:12:01.612Z,82.8
2023-05-14T04:13:02.131Z,82.4
2023-05-14T04:14:03.204Z,82
2023-05-14T04:15:02.033Z,81.6
2023-05-14T04:16:01.541Z,81.7
2023-05-14T04:17:02.060Z,81.6
2023-05-14T04:18:01.520Z,81.3
2023-05-14T04:19:01.946Z,81.3
2023-05-14T04:20:01.367Z,81.7
2023-05-14T04:21:01.854Z,81.9
2023-05-14T04:22:02.334Z,81.7
2023-05-14T04:23:01.785Z,81.6
2023-05-14T04:24:02.246Z,81.2
2023-05-14T04:25:01.777Z,81.6
2023-05-14T04:26:02.265Z,81.8
2023-05-14T04:27:01.682Z,81.9
2023-05-14T04:28:02.258Z,82
2023-05-14T04:29:03.445Z,82.2
2023-05-14T04:31:01.768Z,82.3
2023-05-14T04:32:02.297Z,82.1
2023-05-14T04:33:01.706Z,82.1
2023-05-14T04:34:02.167Z,82.4
2023-05-14T04:35:01.710Z,82.3
2023-05-14T04:36:02.165Z,82.2
2023-05-14T04:37:03.290Z,82
2023-05-14T04:38:03.761Z,81.9
2023-05-14T04:39:01.528Z,81.6
2023-05-14T04:40:02.061Z,81.5
2023-05-14T04:41:01.435Z,81.4
2023-05-14T04:42:03.613Z,81.5
2023-05-14T04:43:01.360Z,81.3
2023-05-14T04:44:01.902Z,81.4
2023-05-14T04:45:01.390Z,81.2
2023-05-14T04:46:01.921Z,81.1
2023-05-14T04:47:02.257Z,81.1
2023-05-14T04:48:01.920Z,80.7
2023-05-14T04:49:02.248Z,80.8
2023-05-14T04:50:03.399Z,80.9
2023-05-14T04:51:02.158Z,80.8
2023-05-14T04:52:01.604Z,80.5
2023-05-14T04:53:02.087Z,80.4
2023-05-14T04:54:03.248Z,80.1
2023-05-14T04:55:02.026Z,80.4
2023-05-14T04:56:01.490Z,80.5
2023-05-14T04:57:01.921Z,80.2
2023-05-14T04:58:01.444Z,80.1
2023-05-14T04:59:01.933Z,80
2023-05-14T05:00:03.046Z,79.9
2023-05-14T05:01:01.875Z,79.6
2023-05-14T05:02:01.820Z,79.4
2023-05-14T05:03:01.954Z,79.2
2023-05-14T05:05:01.841Z,78.7
2023-05-14T05:06:02.353Z,78.4
2023-05-14T05:07:01.774Z,78.4
2023-05-14T05:08:02.272Z,78.3
2023-05-14T05:09:02.378Z,78.2
2023-05-14T05:10:03.125Z,78.2
2023-05-14T05:11:02.036Z,78
2023-05-14T05:12:01.688Z,78.5
2023-05-14T05:13:02.174Z,78.3
2023-05-14T05:14:01.857Z,78.3
2023-05-14T05:15:03.222Z,77.5
2023-05-14T05:16:03.853Z,77.9
2023-05-14T05:17:01.686Z,76.9
2023-05-14T05:18:02.281Z,77.4
2023-05-14T05:19:01.957Z,76.8
2023-05-14T05:20:01.305Z,77.7
2023-05-14T05:21:01.931Z,77.6
2023-05-14T05:22:01.483Z,77
2023-05-14T05:23:01.943Z,76.4
2023-05-14T05:24:01.533Z,76
2023-05-14T05:25:02.104Z,76.1
2023-05-14T05:26:01.677Z,76
2023-05-14T05:27:02.256Z,75.8
2023-05-14T05:28:01.771Z,75.6
2023-05-14T05:29:03.962Z,75.6
2023-05-14T05:30:03.565Z,75
2023-05-14T05:31:01.813Z,74.6
2023-05-14T05:32:01.307Z,74.3
2023-05-14T05:33:01.839Z,74.6
2023-05-14T05:34:01.537Z,74.3
2023-05-14T05:35:01.695Z,74
2023-05-14T05:36:01.698Z,74
2023-05-14T05:37:07.638Z,74
2023-05-14T05:38:02.376Z,74.2
2023-05-14T05:39:01.778Z,74.2
2023-05-14T05:40:03.937Z,74.1
2023-05-14T05:41:03.374Z,73.5
2023-05-14T05:42:02.184Z,73.2
2023-05-14T05:43:01.611Z,72.8
2023-05-14T05:44:02.094Z,72.5
2023-05-14T05:45:01.606Z,72.6
2023-05-14T05:46:03.728Z,72.4
2023-05-14T05:47:01.545Z,72.2
2023-05-14T05:48:02.076Z,72.6
2023-05-14T05:49:01.440Z,72.4
2023-05-14T05:50:01.959Z,72.6
2023-05-14T05:51:01.438Z,72.3
2023-05-14T05:52:01.918Z,71.5
2023-05-14T05:53:01.402Z,71.6
2023-05-14T05:54:03.537Z,72.3
2023-05-14T05:56:01.778Z,71.4
2023-05-14T05:57:02.263Z,70.6
2023-05-14T05:58:01.790Z,70.6
2023-05-14T05:59:02.172Z,70.4
2023-05-14T06:00:01.685Z,69.9
2023-05-14T06:01:03.845Z,70.1
2023-05-14T06:02:01.639Z,70.3
2023-05-14T06:03:02.231Z,70.8
2023-05-14T06:04:01.528Z,70.8
2023-05-14T06:05:02.062Z,71.1
2023-05-14T06:06:01.511Z,71.5
2023-05-14T06:07:02.019Z,71.9
2023-05-14T06:08:01.454Z,72
2023-05-14T06:09:01.971Z,72.1
2023-05-14T06:10:01.458Z,72.6
2023-05-14T06:11:01.848Z,72.9
2023-05-14T06:12:03.054Z,73.4
2023-05-14T06:13:01.843Z,73.9
2023-05-14T06:14:02.340Z,74.4
2023-05-14T06:15:01.813Z,73.7
2023-05-14T06:16:02.262Z,72.7
2023-05-14T06:17:03.419Z,72.1
2023-05-14T06:18:02.180Z,72.3
2023-05-14T06:19:01.782Z,71.5
2023-05-14T06:20:02.169Z,71.7
2023-05-14T06:21:01.611Z,72.3
2023-05-14T06:22:02.079Z,72.1
2023-05-14T06:23:01.547Z,72.8
2023-05-14T06:24:02.030Z,73.1
2023-05-14T06:25:03.216Z,71.7
2023-05-14T06:26:02.064Z,72.4
2023-05-14T06:27:01.442Z,71
2023-05-14T06:28:03.628Z,70.2
2023-05-14T06:29:03.054Z,69.9
2023-05-14T06:30:03.528Z,69.9
2023-05-14T06:32:01.833Z,71.1
2023-05-14T06:33:02.258Z,70.6
2023-05-14T06:34:01.797Z,70.8
2023-05-14T06:35:03.927Z,69.7
2023-05-14T06:36:03.282Z,70.8
2023-05-14T06:37:02.091Z,70
2023-05-14T06:38:01.616Z,71.2
2023-05-14T06:39:02.104Z,71
2023-05-14T06:40:01.529Z,70.8
2023-05-14T06:41:02.086Z,71.9
2023-05-14T06:42:01.627Z,71.5
2023-05-14T06:43:02.109Z,71.5
2023-05-14T06:44:01.531Z,71.4
2023-05-14T06:45:02.053Z,71.9
2023-05-14T06:46:02.013Z,71.4
2023-05-14T06:47:01.525Z,71.5
2023-05-14T06:48:03.777Z,71.2
2023-05-14T06:49:03.137Z,71.5
2023-05-14T06:50:01.927Z,71.7
2023-05-14T06:51:01.439Z,71.9
2023-05-14T06:52:01.852Z,71.3
2023-05-14T06:53:02.328Z,71.2
2023-05-14T06:54:01.792Z,70.6
2023-05-14T06:55:02.272Z,71
2023-05-14T06:56:01.681Z,70.7
2023-05-14T06:57:02.165Z,70.7
2023-05-14T06:58:01.594Z,71.4
2023-05-14T06:59:03.763Z,71
2023-05-14T07:00:03.271Z,71.4
2023-05-14T07:01:02.058Z,71.8
2023-05-14T07:02:01.622Z,70.4
2023-05-14T07:03:02.031Z,72.4
2023-05-14T07:04:03.137Z,72.3
2023-05-14T07:05:03.645Z,71.6
2023-05-14T07:06:01.360Z,71.5
2023-05-14T07:07:01.858Z,71.2
2023-05-14T07:08:01.366Z,71
2023-05-14T07:09:01.855Z,70.7
2023-05-14T07:10:02.328Z,70.3
2023-05-14T07:11:01.784Z,69.8
2023-05-14T07:12:03.926Z,70
2023-05-14T07:13:01.723Z,70.6
2023-05-14T07:14:02.171Z,70
2023-05-14T07:15:01.733Z,69.4
2023-05-14T07:16:03.770Z,69.8
2023-05-14T07:17:01.656Z,70.2
2023-05-14T07:18:02.153Z,68.9
2023-05-14T07:19:01.683Z,68.1
2023-05-14T07:20:02.052Z,69.2
2023-05-14T07:21:01.536Z,68.6
2023-05-14T07:22:02.021Z,68.6
2023-05-14T07:23:01.466Z,68.3
2023-05-14T07:24:01.937Z,68.2
2023-05-14T07:25:03.237Z,68.4
2023-05-14T07:26:01.921Z,68.1
2023-05-14T07:27:01.364Z,68.1
2023-05-14T07:28:01.853Z,68.3
2023-05-14T07:29:01.281Z,68.4
2023-05-14T07:30:01.785Z,67.9
2023-05-14T07:31:02.311Z,68.4
2023-05-14T07:32:01.808Z,68
2023-05-14T07:33:02.288Z,68.4
2023-05-14T07:34:03.374Z,67.7
2023-05-14T07:35:03.856Z,67.5
2023-05-14T07:36:01.589Z,68
2023-05-14T07:37:02.121Z,68.4
2023-05-14T07:38:01.625Z,68.8
2023-05-14T07:39:02.094Z,68.3
2023-05-14T07:40:01.538Z,68.6
2023-05-14T07:41:02.003Z,68.7
2023-05-14T07:42:01.545Z,69
2023-05-14T07:43:02.009Z,69.5
2023-05-14T07:44:03.136Z,69.1
2023-05-14T07:45:01.965Z,69.5
2023-05-14T07:46:01.388Z,69.7
2023-05-14T07:47:01.952Z,69.9
2023-05-14T07:48:03.107Z,71.1
2023-05-14T07:49:01.852Z,70
2023-05-14T07:50:02.271Z,70
2023-05-14T07:51:01.791Z,70.1
2023-05-14T07:52:02.243Z,71.7
2023-05-14T07:53:03.386Z,66
2023-05-14T07:54:01.358Z,68.3
2023-05-14T07:55:03.454Z,67.5
2023-05-14T07:56:02.250Z,66.5
2023-05-14T07:57:01.771Z,66.7
2023-05-14T07:58:02.167Z,64.5
2023-05-14T07:59:01.695Z,64.5
2023-05-14T08:00:02.174Z,65.5
2023-05-14T08:01:01.639Z,65.3
2023-05-14T08:02:02.203Z,66.1
2023-05-14T08:03:01.694Z,65.1
2023-05-14T08:04:02.199Z,65.3
2023-05-14T08:05:01.450Z,65.8
2023-05-14T08:06:01.966Z,65.9
2023-05-14T08:07:01.458Z,66.3
2023-05-14T08:08:01.945Z,65.4
2023-05-14T08:09:03.053Z,67.3
2023-05-14T08:10:01.864Z,65.7
2023-05-14T08:11:02.383Z,65.3
2023-05-14T08:12:01.781Z,66
2023-05-14T08:13:02.299Z,63.7
2023-05-14T08:14:01.703Z,63.9
2023-05-14T08:15:03.913Z,63.4
2023-05-14T08:16:01.597Z,66
2023-05-14T08:17:02.268Z,65.9
2023-05-14T08:18:01.601Z,64.7
2023-05-14T08:19:02.063Z,65.4
2023-05-14T08:20:01.535Z,65.8
2023-05-14T08:21:03.522Z,62.8
2023-05-14T08:22:03.135Z,62
2023-05-14T08:23:01.958Z,64.1
2023-05-14T08:24:01.394Z,62.8
2023-05-14T08:25:01.863Z,63.2
2023-05-14T08:26:03.999Z,63.4
2023-05-14T08:27:03.466Z,64.7
2023-05-14T08:28:02.269Z,64.5
2023-05-14T08:29:03.375Z,64.8
2023-05-14T08:30:03.861Z,65.2
2023-05-14T08:31:03.349Z,65.3
2023-05-14T08:32:08.692Z,65.2
2023-05-14T08:33:01.614Z,65.9
2023-05-14T08:34:03.746Z,63.2
2023-05-14T08:35:03.144Z,61.4
2023-05-14T08:36:01.965Z,62.6
2023-05-14T08:37:01.477Z,61.4
2023-05-14T08:38:01.939Z,62.5
2023-05-14T08:39:01.393Z,61.6
2023-05-14T08:40:01.889Z,62.9
2023-05-14T08:41:02.381Z,61.8
2023-05-14T08:42:01.827Z,62.2
2023-05-14T08:43:02.381Z,62
2023-05-14T08:44:01.710Z,60.3
2023-05-14T08:45:02.246Z,60.7
2023-05-14T08:46:01.679Z,59.8
2023-05-14T08:47:02.169Z,60.1
2023-05-14T08:48:01.780Z,59.5
2023-05-14T08:49:03.868Z,60
2023-05-14T08:50:01.571Z,59.3
2023-05-14T08:51:02.052Z,59.2
2023-05-14T08:52:01.558Z,61.5
2023-05-14T08:53:02.029Z,58.5
2023-05-14T08:54:01.485Z,61
2023-05-14T08:55:03.630Z,58.1
2023-05-14T08:56:01.390Z,58.6
2023-05-14T08:57:03.549Z,57.4
2023-05-14T08:58:03.072Z,58.5
2023-05-14T08:59:01.776Z,59.1
2023-05-14T09:00:02.272Z,59.8
2023-05-14T09:01:02.892Z,59.7
2023-05-14T09:02:03.378Z,61
2023-05-14T09:03:02.135Z,59.6
2023-05-14T09:04:01.672Z,61.2
2023-05-14T09:05:02.024Z,60.3
2023-05-14T09:06:03.154Z,60.1
2023-05-14T09:07:01.995Z,59.2
2023-05-14T09:08:01.445Z,58.6
2023-05-14T09:09:01.931Z,59.2
2023-05-14T09:10:01.363Z,57.4
2023-05-14T09:11:01.868Z,58.6
2023-05-14T09:12:01.372Z,58.7
2023-05-14T09:13:01.861Z,59
2023-05-14T09:14:02.329Z,58.3
2023-05-14T09:15:01.777Z,56.7
2023-05-14T09:16:02.321Z,56.2
2023-05-14T09:17:03.382Z,56.9
2023-05-14T09:18:02.214Z,56.8
2023-05-14T09:19:01.806Z,56.9
2023-05-14T09:20:02.160Z,57.1
2023-05-14T09:21:01.631Z,56.1
2023-05-14T09:22:03.766Z,58
2023-05-14T09:23:01.560Z,57.4
2023-05-14T09:24:01.999Z,58
2023-05-14T09:25:01.521Z,59.1
2023-05-14T09:26:02.015Z,58.9
2023-05-14T09:27:03.136Z,59.2
2023-05-14T09:28:01.930Z,57.5
2023-05-14T09:29:03.131Z,58.9
2023-05-14T09:30:01.920Z,57.8
2023-05-14T09:31:01.369Z,58.9
2023-05-14T09:32:01.928Z,56.8
2023-05-14T09:33:01.405Z,59.1
2023-05-14T09:34:01.847Z,58.7
2023-05-14T09:35:02.337Z,58.5
2023-05-14T09:36:01.748Z,57.8
2023-05-14T09:37:02.260Z,58.7
2023-05-14T09:38:03.395Z,57.7
2023-05-14T09:39:03.846Z,58
2023-05-14T09:40:01.679Z,57.5
2023-05-14T09:41:03.794Z,57.4
2023-05-14T09:42:01.601Z,58.3
2023-05-14T09:43:02.084Z,58.6
2023-05-14T09:44:01.513Z,58.5
2023-05-14T09:45:02.018Z,57.6
2023-05-14T09:46:01.442Z,59.9
2023-05-14T09:47:03.647Z,58.2
2023-05-14T09:48:01.662Z,60.4
2023-05-14T09:49:01.929Z,59.3
2023-05-14T09:50:01.385Z,58.8
2023-05-14T09:51:02.803Z,58.8
2023-05-14T09:52:01.376Z,59.1
2023-05-14T09:53:03.448Z,60.4
2023-05-14T09:54:02.326Z,59.2
2023-05-14T09:55:01.790Z,58
2023-05-14T09:56:03.938Z,60.9
2023-05-14T09:57:01.700Z,62
2023-05-14T09:58:03.858Z,61.2
2023-05-14T09:59:01.682Z,61.8
2023-05-14T10:00:02.157Z,59.5
2023-05-14T10:01:01.641Z,61.9
2023-05-14T10:02:02.113Z,61.3
2023-05-14T10:03:01.595Z,60.9
2023-05-14T10:04:02.022Z,61.2
2023-05-14T10:05:01.554Z,62.8
2023-05-14T10:06:02.013Z,61.4
2023-05-14T10:07:01.439Z,59.3
2023-05-14T10:08:03.603Z,57.8
2023-05-14T10:09:01.444Z,59.4
2023-05-14T10:10:03.738Z,58.6
2023-05-14T10:11:01.601Z,59.4
2023-05-14T10:12:02.009Z,58.9
2023-05-14T10:13:03.114Z,59
2023-05-14T10:14:01.917Z,58.5
2023-05-14T10:15:01.382Z,57.1
2023-05-14T10:16:01.857Z,58.4
2023-05-14T10:17:01.357Z,57
2023-05-14T10:18:03.515Z,58.1
2023-05-14T10:19:02.281Z,56.8
2023-05-14T10:20:03.364Z,57.8
2023-05-14T10:21:02.177Z,59.9
2023-05-14T10:22:01.686Z,59.4
2023-05-14T10:23:02.171Z,57
2023-05-14T10:24:01.609Z,58
2023-05-14T10:25:03.766Z,56.6
2023-05-14T10:26:03.195Z,57.8
2023-05-14T10:27:02.006Z,56.6
2023-05-14T10:28:03.127Z,56.7
2023-05-14T10:29:01.923Z,55.6
2023-05-14T10:30:01.368Z,55.8
2023-05-14T10:31:03.588Z,57.1
2023-05-14T10:32:03.091Z,56.2
2023-05-14T10:33:01.826Z,56
2023-05-14T10:34:02.234Z,57.8
2023-05-14T10:35:01.765Z,55.6
2023-05-14T10:36:02.251Z,56.5
2023-05-14T10:37:01.720Z,55.4
2023-05-14T10:38:03.839Z,55.2
2023-05-14T10:39:01.597Z,55.6
2023-05-14T10:40:02.094Z,56.1
2023-05-14T10:41:01.536Z,56.1
2023-05-14T10:42:02.024Z,56.6
2023-05-14T10:43:01.531Z,56.6
2023-05-14T10:44:02.009Z,56.5
2023-05-14T10:45:01.452Z,56.2
2023-05-14T10:46:03.647Z,55.8
2023-05-14T10:47:03.225Z,57.5
2023-05-14T10:48:01.858Z,54.9
2023-05-14T10:49:01.283Z,55.3
2023-05-14T10:50:03.468Z,55.8
2023-05-14T10:51:02.328Z,55.3
2023-05-14T10:52:01.772Z,55.4
2023-05-14T10:53:02.199Z,55.5
2023-05-14T10:54:01.702Z,56.1
2023-05-14T10:55:03.452Z,56
2023-05-14T10:56:01.586Z,54.8
2023-05-14T10:57:02.093Z,55.4
2023-05-14T10:58:01.538Z,55.4
2023-05-14T10:59:02.020Z,54.8
2023-05-14T11:00:01.686Z,55
2023-05-14T11:01:02.022Z,55.7
2023-05-14T11:02:01.786Z,56.4
2023-05-14T11:03:02.149Z,55.1
2023-05-14T11:04:01.493Z,56
2023-05-14T11:05:01.931Z,54.8
2023-05-14T11:06:02.927Z,56
2023-05-14T11:09:04.122Z,55
2023-05-14T11:10:01.791Z,55.7
2023-05-14T11:11:03.930Z,54.8
2023-05-14T11:12:01.690Z,56.2
2023-05-14T11:13:02.158Z,55.4
2023-05-14T11:14:01.682Z,55.2
2023-05-14T11:15:03.947Z,55.5
2023-05-14T11:16:08.723Z,57.5
2023-05-14T11:17:02.325Z,56
2023-05-14T11:18:02.248Z,56.2
2023-05-14T11:19:01.873Z,54.8
2023-05-14T11:20:02.241Z,54.7
2023-05-14T11:21:01.789Z,55.1
2023-05-14T11:23:01.956Z,55.9
2023-05-14T11:24:03.256Z,55.6
2023-05-14T11:25:02.033Z,54.5
2023-05-14T11:26:01.556Z,55.3
2023-05-14T11:27:02.069Z,55.6
2023-05-14T11:28:01.631Z,56.4
2023-05-14T11:29:02.092Z,55.4
2023-05-14T11:30:01.627Z,54.3
2023-05-14T11:31:02.179Z,54.7
2023-05-14T11:32:01.848Z,55.6
2023-05-14T11:33:02.414Z,56.5
2023-05-14T11:34:01.776Z,55.4
2023-05-14T11:35:02.339Z,55.7
2023-05-14T11:36:01.851Z,55
2023-05-14T11:37:01.386Z,54.3
2023-05-14T11:38:03.627Z,54.5
2023-05-14T11:39:01.366Z,54.6
2023-05-14T11:40:01.934Z,54.9
2023-05-14T11:41:01.459Z,54.8
2023-05-14T11:42:02.025Z,54.4
2023-05-14T11:43:01.551Z,54.6
2023-05-14T11:44:03.707Z,54.1
2023-05-14T11:45:01.578Z,54.4
2023-05-14T11:46:02.162Z,54.9
2023-05-14T11:47:01.616Z,54.1
2023-05-14T11:48:02.232Z,55.9
2023-05-14T11:49:03.366Z,55.2
2023-05-14T11:50:03.847Z,55.1
2023-05-14T11:51:01.675Z,56.4
2023-05-14T11:52:03.924Z,55.3
2023-05-14T11:53:01.783Z,55.7
2023-05-14T11:54:02.328Z,55.8
2023-05-14T11:55:01.866Z,56.3
2023-05-14T11:56:01.382Z,56.8
2023-05-14T11:57:03.528Z,56.5
2023-05-14T11:58:03.060Z,57.1
2023-05-14T11:59:01.922Z,57.6
2023-05-14T12:00:01.475Z,57.8
2023-05-14T12:01:04.405Z,57.7
2023-05-14T12:02:02.298Z,58.1
2023-05-14T12:03:01.792Z,58.1
2023-05-14T12:04:02.260Z,58.4
2023-05-14T12:05:01.684Z,57.2
2023-05-14T12:06:02.313Z,57.9
2023-05-14T12:07:01.692Z,58
2023-05-14T12:08:03.832Z,57.9
2023-05-14T12:09:01.770Z,58
2023-05-14T12:10:02.169Z,58.7
2023-05-14T12:11:01.690Z,57.8
2023-05-14T12:12:02.171Z,57.8
2023-05-14T12:13:03.365Z,57.6
2023-05-14T12:14:02.165Z,57.2
2023-05-14T12:15:01.715Z,58.1
2023-05-14T12:16:02.391Z,58.4
2023-05-14T12:17:01.686Z,58.8
2023-05-14T12:18:03.015Z,59.3
2023-05-14T12:19:01.816Z,58.3
2023-05-14T12:20:02.160Z,58.2
2023-05-14T12:21:01.706Z,58.8
2023-05-14T12:22:02.165Z,58.8
2023-05-14T12:23:01.592Z,58
2023-05-14T12:24:02.164Z,58.2
2023-05-14T12:25:03.362Z,58.5
2023-05-14T12:26:02.087Z,58.7
2023-05-14T12:27:01.605Z,58.7
2023-05-14T12:28:02.084Z,58.5
2023-05-14T12:29:01.625Z,59.3
2023-05-14T12:30:19.992Z,58
2023-05-14T12:31:01.660Z,59.1
2023-05-14T12:32:02.099Z,59.1
2023-05-14T12:33:01.652Z,58.6
2023-05-14T12:34:02.102Z,58.4
2023-05-14T12:35:01.617Z,58.5
2023-05-14T12:36:17.541Z,58.7
2023-05-14T12:37:03.203Z,59.5
2023-05-14T12:38:02.011Z,59.8
2023-05-14T12:39:01.442Z,60.1
2023-05-14T12:40:01.978Z,60.7
2023-05-14T12:41:01.464Z,60.9
2023-05-14T12:42:03.606Z,60.9
2023-05-14T12:43:01.387Z,60.2
2023-05-14T12:44:03.523Z,60.6
2023-05-14T12:45:01.388Z,60
2023-05-14T12:46:01.842Z,60.5
2023-05-14T12:47:01.395Z,61.2
2023-05-14T12:48:01.957Z,61.7
2023-05-14T12:49:01.454Z,61.8
2023-05-14T12:50:01.945Z,61.8
2023-05-14T12:51:01.455Z,62.3
2023-05-14T12:52:19.486Z,62.6
2023-05-14T12:53:01.536Z,62.1
2023-05-14T12:54:02.094Z,62.2
2023-05-14T12:55:01.719Z,61.8
2023-05-14T12:56:02.122Z,61.5
2023-05-14T12:57:03.288Z,61.4
2023-05-14T12:58:03.837Z,62.2
2023-05-14T12:59:03.364Z,62.3
2023-05-14T13:00:03.854Z,62.6
2023-05-14T13:01:03.439Z,63.1
2023-05-14T13:02:03.841Z,62.6
2023-05-14T13:03:01.725Z,62.2
2023-05-14T13:04:02.199Z,62.8
2023-05-14T13:05:01.680Z,63.2
2023-05-14T13:06:02.189Z,63.7
2023-05-14T13:07:01.694Z,62.9
2023-05-14T13:08:02.157Z,61.9
2023-05-14T13:09:01.698Z,62.2
2023-05-14T13:10:02.229Z,62.3
2023-05-14T13:11:01.822Z,62.3
2023-05-14T13:12:01.359Z,63.1
2023-05-14T13:13:01.837Z,61.8
2023-05-14T13:14:03.086Z,87.9
2023-05-14T13:15:01.841Z,57.2
2023-05-14T13:16:03.081Z,57.9
2023-05-14T13:17:03.747Z,58.5
2023-05-14T13:18:01.380Z,59
2023-05-14T13:19:01.965Z,59.8
2023-05-14T13:20:01.376Z,60.6
2023-05-14T13:21:01.928Z,61.4
2023-05-14T13:22:03.136Z,62.1
2023-05-14T13:23:01.921Z,62.2
2023-05-14T13:24:03.042Z,61.6
2023-05-14T13:25:01.921Z,61
2023-05-14T13:26:01.462Z,61.2
2023-05-14T13:27:01.951Z,61.1
2023-05-14T13:28:01.441Z,61.1
2023-05-14T13:29:01.926Z,61.9
2023-05-14T13:30:01.435Z,61.9
2023-05-14T13:31:01.957Z,62.2